sensor_id;sensor_type;location;lat;lon;timestamp;P1;durP1;ratioP1;P2;durP2;ratioP2
65996;SDS011;52765;52.258;21.052;2022-08-21T00:01:29;6.22;;;4.05;;
65996;SDS011;52765;52.258;21.052;2022-08-21T00:03:56;10.45;;;4.45;;
65996;SDS011;52765;52.258;21.052;2022-08-21T00:06:21;7.22;;;4.15;;
65996;SDS011;52765;52.258;21.052;2022-08-21T00:08:49;5.13;;;3.53;;
65996;SDS011;52765;52.258;21.052;2022-08-21T00:11:15;9.75;;;4.38;;
65996;SDS011;52765;52.258;21.052;2022-08-21T00:13:43;6.45;;;4.03;;
65996;SDS011;52765;52.258;21.052;2022-08-21T00:16:08;6.55;;;4.20;;
65996;SDS011;52765;52.258;21.052;2022-08-21T00:18:34;9.05;;;4.22;;
65996;SDS011;52765;52.258;21.052;2022-08-21T00:21:00;5.70;;;4.25;;
65996;SDS011;52765;52.258;21.052;2022-08-21T00:23:26;5.60;;;4.07;;
65996;SDS011;52765;52.258;21.052;2022-08-21T00:25:51;7.85;;;4.63;;
65996;SDS011;52765;52.258;21.052;2022-08-21T00:28:17;8.35;;;4.00;;
65996;SDS011;52765;52.258;21.052;2022-08-21T00:30:43;6.28;;;4.40;;
65996;SDS011;52765;52.258;21.052;2022-08-21T00:33:09;4.68;;;3.80;;
65996;SDS011;52765;52.258;21.052;2022-08-21T00:35:37;6.82;;;4.22;;
65996;SDS011;52765;52.258;21.052;2022-08-21T00:38:06;5.38;;;4.03;;
65996;SDS011;52765;52.258;21.052;2022-08-21T00:40:52;6.90;;;4.18;;
65996;SDS011;52765;52.258;21.052;2022-08-21T00:43:22;7.75;;;3.95;;
65996;SDS011;52765;52.258;21.052;2022-08-21T00:45:50;4.90;;;4.00;;
65996;SDS011;52765;52.258;21.052;2022-08-21T00:48:16;5.05;;;3.60;;
65996;SDS011;52765;52.258;21.052;2022-08-21T00:50:44;6.75;;;4.00;;
65996;SDS011;52765;52.258;21.052;2022-08-21T00:53:17;6.03;;;4.20;;
65996;SDS011;52765;52.258;21.052;2022-08-21T00:55:43;4.22;;;3.83;;
65996;SDS011;52765;52.258;21.052;2022-08-21T00:58:11;5.05;;;3.60;;
65996;SDS011;52765;52.258;21.052;2022-08-21T01:00:39;6.47;;;3.97;;
65996;SDS011;52765;52.258;21.052;2022-08-21T01:03:10;6.70;;;4.18;;
65996;SDS011;52765;52.258;21.052;2022-08-21T01:05:41;5.47;;;3.90;;
65996;SDS011;52765;52.258;21.052;2022-08-21T01:08:07;5.47;;;4.00;;
65996;SDS011;52765;52.258;21.052;2022-08-21T01:10:34;4.40;;;3.65;;
65996;SDS011;52765;52.258;21.052;2022-08-21T01:13:00;6.72;;;4.03;;
65996;SDS011;52765;52.258;21.052;2022-08-21T01:15:29;6.43;;;4.32;;
65996;SDS011;52765;52.258;21.052;2022-08-21T01:17:58;6.90;;;4.20;;
65996;SDS011;52765;52.258;21.052;2022-08-21T01:20:24;6.97;;;4.57;;
65996;SDS011;52765;52.258;21.052;2022-08-21T01:22:51;5.55;;;4.18;;
65996;SDS011;52765;52.258;21.052;2022-08-21T01:25:17;6.47;;;4.30;;
65996;SDS011;52765;52.258;21.052;2022-08-21T01:27:45;7.13;;;4.30;;
65996;SDS011;52765;52.258;21.052;2022-08-21T01:30:12;4.90;;;4.03;;
65996;SDS011;52765;52.258;21.052;2022-08-21T01:32:43;8.30;;;4.43;;
65996;SDS011;52765;52.258;21.052;2022-08-21T01:35:09;6.10;;;3.95;;
65996;SDS011;52765;52.258;21.052;2022-08-21T01:37:36;6.75;;;3.97;;
65996;SDS011;52765;52.258;21.052;2022-08-21T01:40:02;5.95;;;3.70;;
65996;SDS011;52765;52.258;21.052;2022-08-21T01:42:29;5.82;;;4.60;;
65996;SDS011;52765;52.258;21.052;2022-08-21T01:44:55;7.60;;;4.38;;
65996;SDS011;52765;52.258;21.052;2022-08-21T01:47:21;6.60;;;4.10;;
65996;SDS011;52765;52.258;21.052;2022-08-21T01:49:47;4.35;;;3.95;;
65996;SDS011;52765;52.258;21.052;2022-08-21T01:52:13;7.70;;;4.60;;
65996;SDS011;52765;52.258;21.052;2022-08-21T01:54:38;5.00;;;4.07;;
65996;SDS011;52765;52.258;21.052;2022-08-21T01:57:04;5.35;;;4.22;;
65996;SDS011;52765;52.258;21.052;2022-08-21T01:59:31;8.98;;;4.72;;
65996;SDS011;52765;52.258;21.052;2022-08-21T02:01:56;7.28;;;4.80;;
65996;SDS011;52765;52.258;21.052;2022-08-21T02:04:22;6.55;;;4.68;;
65996;SDS011;52765;52.258;21.052;2022-08-21T02:06:48;6.28;;;4.40;;
65996;SDS011;52765;52.258;21.052;2022-08-21T02:09:14;5.95;;;4.40;;
65996;SDS011;52765;52.258;21.052;2022-08-21T02:11:41;6.65;;;4.80;;
65996;SDS011;52765;52.258;21.052;2022-08-21T02:14:07;9.82;;;4.63;;
65996;SDS011;52765;52.258;21.052;2022-08-21T02:16:34;4.70;;;4.13;;
65996;SDS011;52765;52.258;21.052;2022-08-21T02:19:00;8.02;;;4.60;;
65996;SDS011;52765;52.258;21.052;2022-08-21T02:21:26;5.90;;;4.47;;
65996;SDS011;52765;52.258;21.052;2022-08-21T02:23:51;6.03;;;4.60;;
65996;SDS011;52765;52.258;21.052;2022-08-21T02:26:17;7.15;;;4.65;;
65996;SDS011;52765;52.258;21.052;2022-08-21T02:28:42;5.22;;;4.00;;
65996;SDS011;52765;52.258;21.052;2022-08-21T02:31:08;7.22;;;4.60;;
65996;SDS011;52765;52.258;21.052;2022-08-21T02:33:34;7.22;;;4.30;;
65996;SDS011;52765;52.258;21.052;2022-08-21T02:36:00;9.40;;;5.50;;
65996;SDS011;52765;52.258;21.052;2022-08-21T02:38:27;7.72;;;4.53;;
65996;SDS011;52765;52.258;21.052;2022-08-21T02:40:56;5.43;;;4.25;;
65996;SDS011;52765;52.258;21.052;2022-08-21T02:43:22;6.88;;;4.60;;
65996;SDS011;52765;52.258;21.052;2022-08-21T02:45:50;6.32;;;4.78;;
65996;SDS011;52765;52.258;21.052;2022-08-21T02:48:18;8.07;;;4.70;;
65996;SDS011;52765;52.258;21.052;2022-08-21T02:50:47;8.32;;;4.65;;
65996;SDS011;52765;52.258;21.052;2022-08-21T02:53:16;6.75;;;4.55;;
65996;SDS011;52765;52.258;21.052;2022-08-21T02:55:43;7.63;;;4.85;;
65996;SDS011;52765;52.258;21.052;2022-08-21T02:58:10;8.38;;;5.38;;
65996;SDS011;52765;52.258;21.052;2022-08-21T03:00:37;7.40;;;4.88;;
65996;SDS011;52765;52.258;21.052;2022-08-21T03:03:03;8.02;;;4.95;;
65996;SDS011;52765;52.258;21.052;2022-08-21T03:05:30;11.00;;;4.68;;
65996;SDS011;52765;52.258;21.052;2022-08-21T03:07:57;7.30;;;4.82;;
65996;SDS011;52765;52.258;21.052;2022-08-21T03:10:23;6.93;;;4.82;;
65996;SDS011;52765;52.258;21.052;2022-08-21T03:12:50;8.45;;;5.30;;
65996;SDS011;52765;52.258;21.052;2022-08-21T03:15:17;9.40;;;4.82;;
65996;SDS011;52765;52.258;21.052;2022-08-21T03:17:45;7.22;;;4.78;;
65996;SDS011;52765;52.258;21.052;2022-08-21T03:20:18;8.27;;;5.10;;
65996;SDS011;52765;52.258;21.052;2022-08-21T03:22:47;6.88;;;5.13;;
65996;SDS011;52765;52.258;21.052;2022-08-21T03:25:12;6.03;;;4.55;;
65996;SDS011;52765;52.258;21.052;2022-08-21T03:27:39;7.53;;;5.10;;
65996;SDS011;52765;52.258;21.052;2022-08-21T03:30:05;9.50;;;5.38;;
65996;SDS011;52765;52.258;21.052;2022-08-21T03:32:32;9.05;;;5.43;;
65996;SDS011;52765;52.258;21.052;2022-08-21T03:34:58;8.38;;;4.78;;
65996;SDS011;52765;52.258;21.052;2022-08-21T03:37:25;6.30;;;4.97;;
65996;SDS011;52765;52.258;21.052;2022-08-21T03:39:51;11.23;;;5.20;;
65996;SDS011;52765;52.258;21.052;2022-08-21T03:42:16;6.68;;;4.90;;
65996;SDS011;52765;52.258;21.052;2022-08-21T03:44:42;8.07;;;4.97;;
65996;SDS011;52765;52.258;21.052;2022-08-21T03:47:09;6.55;;;4.93;;
65996;SDS011;52765;52.258;21.052;2022-08-21T03:49:35;8.70;;;4.93;;
65996;SDS011;52765;52.258;21.052;2022-08-21T03:52:02;9.25;;;5.03;;
65996;SDS011;52765;52.258;21.052;2022-08-21T03:54:28;8.18;;;5.03;;
65996;SDS011;52765;52.258;21.052;2022-08-21T03:56:54;8.98;;;5.20;;
65996;SDS011;52765;52.258;21.052;2022-08-21T03:59:20;6.82;;;5.15;;
65996;SDS011;52765;52.258;21.052;2022-08-21T04:01:53;7.15;;;5.13;;
65996;SDS011;52765;52.258;21.052;2022-08-21T04:04:23;9.05;;;5.25;;
65996;SDS011;52765;52.258;21.052;2022-08-21T04:06:49;7.75;;;5.30;;
65996;SDS011;52765;52.258;21.052;2022-08-21T04:09:15;9.70;;;5.40;;
65996;SDS011;52765;52.258;21.052;2022-08-21T04:11:41;8.38;;;5.25;;
65996;SDS011;52765;52.258;21.052;2022-08-21T04:14:06;9.05;;;4.97;;
65996;SDS011;52765;52.258;21.052;2022-08-21T04:16:32;10.23;;;5.57;;
65996;SDS011;52765;52.258;21.052;2022-08-21T04:18:57;9.45;;;5.60;;
65996;SDS011;52765;52.258;21.052;2022-08-21T04:21:23;10.82;;;5.00;;
65996;SDS011;52765;52.258;21.052;2022-08-21T04:23:49;6.97;;;4.40;;
65996;SDS011;52765;52.258;21.052;2022-08-21T04:26:15;9.77;;;5.05;;
65996;SDS011;52765;52.258;21.052;2022-08-21T04:28:40;7.78;;;4.80;;
65996;SDS011;52765;52.258;21.052;2022-08-21T04:31:07;6.97;;;4.57;;
65996;SDS011;52765;52.258;21.052;2022-08-21T04:33:33;7.20;;;5.07;;
65996;SDS011;52765;52.258;21.052;2022-08-21T04:35:59;6.78;;;4.32;;
65996;SDS011;52765;52.258;21.052;2022-08-21T04:38:24;6.72;;;4.53;;
65996;SDS011;52765;52.258;21.052;2022-08-21T04:40:51;8.52;;;4.70;;
65996;SDS011;52765;52.258;21.052;2022-08-21T04:43:17;5.28;;;4.50;;
65996;SDS011;52765;52.258;21.052;2022-08-21T04:45:45;6.63;;;4.30;;
65996;SDS011;52765;52.258;21.052;2022-08-21T04:48:13;7.45;;;4.95;;
65996;SDS011;52765;52.258;21.052;2022-08-21T04:53:16;6.43;;;4.75;;
65996;SDS011;52765;52.258;21.052;2022-08-21T04:55:45;8.05;;;4.30;;
65996;SDS011;52765;52.258;21.052;2022-08-21T04:58:12;8.98;;;5.03;;
65996;SDS011;52765;52.258;21.052;2022-08-21T05:00:42;6.30;;;4.78;;
65996;SDS011;52765;52.258;21.052;2022-08-21T05:03:09;5.80;;;4.65;;
65996;SDS011;52765;52.258;21.052;2022-08-21T05:05:36;8.52;;;5.13;;
65996;SDS011;52765;52.258;21.052;2022-08-21T05:08:03;5.95;;;4.72;;
65996;SDS011;52765;52.258;21.052;2022-08-21T05:10:31;6.72;;;4.63;;
65996;SDS011;52765;52.258;21.052;2022-08-21T05:12:57;8.27;;;5.22;;
65996;SDS011;52765;52.258;21.052;2022-08-21T05:15:24;4.75;;;4.15;;
65996;SDS011;52765;52.258;21.052;2022-08-21T05:17:49;6.53;;;4.38;;
65996;SDS011;52765;52.258;21.052;2022-08-21T05:20:15;5.75;;;4.38;;
65996;SDS011;52765;52.258;21.052;2022-08-21T05:22:41;5.90;;;4.60;;
65996;SDS011;52765;52.258;21.052;2022-08-21T05:25:08;6.30;;;4.53;;
65996;SDS011;52765;52.258;21.052;2022-08-21T05:27:35;5.07;;;4.22;;
65996;SDS011;52765;52.258;21.052;2022-08-21T05:30:00;6.93;;;4.78;;
65996;SDS011;52765;52.258;21.052;2022-08-21T05:32:27;6.40;;;4.45;;
65996;SDS011;52765;52.258;21.052;2022-08-21T05:34:53;4.72;;;4.22;;
65996;SDS011;52765;52.258;21.052;2022-08-21T05:37:19;5.82;;;3.97;;
65996;SDS011;52765;52.258;21.052;2022-08-21T05:39:45;6.63;;;3.95;;
65996;SDS011;52765;52.258;21.052;2022-08-21T05:42:11;8.88;;;4.40;;
65996;SDS011;52765;52.258;21.052;2022-08-21T05:44:36;5.47;;;4.13;;
65996;SDS011;52765;52.258;21.052;2022-08-21T05:47:08;10.48;;;4.53;;
65996;SDS011;52765;52.258;21.052;2022-08-21T05:49:35;10.10;;;4.40;;
65996;SDS011;52765;52.258;21.052;2022-08-21T05:52:01;6.40;;;4.38;;
65996;SDS011;52765;52.258;21.052;2022-08-21T05:54:27;6.45;;;4.25;;
65996;SDS011;52765;52.258;21.052;2022-08-21T05:56:53;5.95;;;4.35;;
65996;SDS011;52765;52.258;21.052;2022-08-21T05:59:19;6.95;;;3.80;;
65996;SDS011;52765;52.258;21.052;2022-08-21T06:01:45;6.70;;;4.53;;
65996;SDS011;52765;52.258;21.052;2022-08-21T06:04:11;6.07;;;4.30;;
65996;SDS011;52765;52.258;21.052;2022-08-21T06:06:37;6.13;;;4.47;;
65996;SDS011;52765;52.258;21.052;2022-08-21T06:09:03;5.40;;;4.05;;
65996;SDS011;52765;52.258;21.052;2022-08-21T06:11:30;5.70;;;4.30;;
65996;SDS011;52765;52.258;21.052;2022-08-21T06:13:59;5.82;;;4.40;;
65996;SDS011;52765;52.258;21.052;2022-08-21T06:16:25;7.13;;;4.45;;
65996;SDS011;52765;52.258;21.052;2022-08-21T06:18:52;4.80;;;4.05;;
65996;SDS011;52765;52.258;21.052;2022-08-21T06:21:17;7.40;;;4.78;;
65996;SDS011;52765;52.258;21.052;2022-08-21T06:23:43;8.75;;;4.85;;
65996;SDS011;52765;52.258;21.052;2022-08-21T06:26:10;5.80;;;4.30;;
65996;SDS011;52765;52.258;21.052;2022-08-21T06:28:37;6.28;;;4.32;;
65996;SDS011;52765;52.258;21.052;2022-08-21T06:31:11;5.88;;;4.22;;
65996;SDS011;52765;52.258;21.052;2022-08-21T06:33:44;8.93;;;4.38;;
65996;SDS011;52765;52.258;21.052;2022-08-21T06:36:11;6.15;;;4.05;;
65996;SDS011;52765;52.258;21.052;2022-08-21T06:38:37;7.53;;;4.70;;
65996;SDS011;52765;52.258;21.052;2022-08-21T06:41:03;6.38;;;4.35;;
65996;SDS011;52765;52.258;21.052;2022-08-21T06:43:29;5.55;;;4.28;;
65996;SDS011;52765;52.258;21.052;2022-08-21T06:45:55;5.75;;;4.40;;
65996;SDS011;52765;52.258;21.052;2022-08-21T06:48:21;9.10;;;4.53;;
65996;SDS011;52765;52.258;21.052;2022-08-21T06:50:47;7.55;;;4.25;;
65996;SDS011;52765;52.258;21.052;2022-08-21T06:53:13;6.40;;;4.38;;
65996;SDS011;52765;52.258;21.052;2022-08-21T06:55:41;6.07;;;4.47;;
65996;SDS011;52765;52.258;21.052;2022-08-21T06:58:07;6.00;;;4.72;;
65996;SDS011;52765;52.258;21.052;2022-08-21T07:00:34;5.35;;;3.97;;
65996;SDS011;52765;52.258;21.052;2022-08-21T07:03:03;5.80;;;3.97;;
65996;SDS011;52765;52.258;21.052;2022-08-21T07:05:29;7.22;;;4.70;;
65996;SDS011;52765;52.258;21.052;2022-08-21T07:07:55;7.63;;;4.28;;
65996;SDS011;52765;52.258;21.052;2022-08-21T07:10:22;6.47;;;4.53;;
65996;SDS011;52765;52.258;21.052;2022-08-21T07:12:49;4.68;;;4.18;;
65996;SDS011;52765;52.258;21.052;2022-08-21T07:15:15;5.15;;;4.45;;
65996;SDS011;52765;52.258;21.052;2022-08-21T07:17:41;5.55;;;4.45;;
65996;SDS011;52765;52.258;21.052;2022-08-21T07:20:07;6.68;;;4.50;;
65996;SDS011;52765;52.258;21.052;2022-08-21T07:22:34;5.93;;;4.10;;
65996;SDS011;52765;52.258;21.052;2022-08-21T07:25:01;5.90;;;4.75;;
65996;SDS011;52765;52.258;21.052;2022-08-21T07:27:28;6.03;;;4.88;;
65996;SDS011;52765;52.258;21.052;2022-08-21T07:29:54;5.15;;;4.40;;
65996;SDS011;52765;52.258;21.052;2022-08-21T07:32:19;7.68;;;4.90;;
65996;SDS011;52765;52.258;21.052;2022-08-21T07:34:45;5.22;;;4.25;;
65996;SDS011;52765;52.258;21.052;2022-08-21T07:37:10;6.88;;;4.30;;
65996;SDS011;52765;52.258;21.052;2022-08-21T07:39:36;5.53;;;4.43;;
65996;SDS011;52765;52.258;21.052;2022-08-21T07:42:01;5.53;;;4.40;;
65996;SDS011;52765;52.258;21.052;2022-08-21T07:44:28;5.35;;;4.25;;
65996;SDS011;52765;52.258;21.052;2022-08-21T07:46:53;8.52;;;4.75;;
65996;SDS011;52765;52.258;21.052;2022-08-21T07:49:19;6.10;;;4.65;;
65996;SDS011;52765;52.258;21.052;2022-08-21T07:51:45;5.78;;;4.55;;
65996;SDS011;52765;52.258;21.052;2022-08-21T07:54:15;5.50;;;4.05;;
65996;SDS011;52765;52.258;21.052;2022-08-21T07:56:44;6.20;;;4.88;;
65996;SDS011;52765;52.258;21.052;2022-08-21T07:59:10;7.32;;;4.18;;
65996;SDS011;52765;52.258;21.052;2022-08-21T08:01:36;6.57;;;4.47;;
65996;SDS011;52765;52.258;21.052;2022-08-21T08:04:02;10.82;;;4.43;;
65996;SDS011;52765;52.258;21.052;2022-08-21T08:06:28;6.88;;;4.13;;
65996;SDS011;52765;52.258;21.052;2022-08-21T08:08:54;5.63;;;4.60;;
65996;SDS011;52765;52.258;21.052;2022-08-21T08:11:19;9.10;;;4.65;;
65996;SDS011;52765;52.258;21.052;2022-08-21T08:13:46;5.53;;;4.20;;
65996;SDS011;52765;52.258;21.052;2022-08-21T08:16:13;6.28;;;4.00;;
65996;SDS011;52765;52.258;21.052;2022-08-21T08:18:40;6.78;;;4.75;;
65996;SDS011;52765;52.258;21.052;2022-08-21T08:21:07;5.75;;;4.22;;
65996;SDS011;52765;52.258;21.052;2022-08-21T08:23:33;7.80;;;4.10;;
65996;SDS011;52765;52.258;21.052;2022-08-21T08:25:59;6.43;;;4.32;;
65996;SDS011;52765;52.258;21.052;2022-08-21T08:28:27;8.23;;;4.60;;
65996;SDS011;52765;52.258;21.052;2022-08-21T08:30:53;7.40;;;3.92;;
65996;SDS011;52765;52.258;21.052;2022-08-21T08:33:20;8.13;;;4.95;;
65996;SDS011;52765;52.258;21.052;2022-08-21T08:35:48;5.38;;;4.38;;
65996;SDS011;52765;52.258;21.052;2022-08-21T08:38:15;9.77;;;4.03;;
65996;SDS011;52765;52.258;21.052;2022-08-21T08:45:55;5.88;;;4.20;;
65996;SDS011;52765;52.258;21.052;2022-08-21T08:49:06;6.97;;;4.63;;
65996;SDS011;52765;52.258;21.052;2022-08-21T08:51:22;5.45;;;4.40;;
65996;SDS011;52765;52.258;21.052;2022-08-21T08:53:56;7.05;;;4.18;;
65996;SDS011;52765;52.258;21.052;2022-08-21T08:56:29;9.13;;;4.90;;
65996;SDS011;52765;52.258;21.052;2022-08-21T08:59:11;4.47;;;3.97;;
65996;SDS011;52765;52.258;21.052;2022-08-21T09:01:47;8.18;;;4.57;;
65996;SDS011;52765;52.258;21.052;2022-08-21T09:04:13;6.75;;;4.38;;
65996;SDS011;52765;52.258;21.052;2022-08-21T09:06:57;4.40;;;3.85;;
65996;SDS011;52765;52.258;21.052;2022-08-21T09:09:47;8.55;;;3.97;;
65996;SDS011;52765;52.258;21.052;2022-08-21T09:23:40;6.68;;;3.85;;
65996;SDS011;52765;52.258;21.052;2022-08-21T09:29:08;6.43;;;4.47;;
65996;SDS011;52765;52.258;21.052;2022-08-21T09:31:37;6.93;;;3.63;;
65996;SDS011;52765;52.258;21.052;2022-08-21T09:34:04;5.18;;;3.30;;
65996;SDS011;52765;52.258;21.052;2022-08-21T09:39:04;5.35;;;3.28;;
65996;SDS011;52765;52.258;21.052;2022-08-21T09:41:31;6.32;;;3.70;;
65996;SDS011;52765;52.258;21.052;2022-08-21T09:44:02;4.63;;;3.17;;
65996;SDS011;52765;52.258;21.052;2022-08-21T09:46:29;5.10;;;3.58;;
65996;SDS011;52765;52.258;21.052;2022-08-21T09:48:59;5.40;;;3.60;;
65996;SDS011;52765;52.258;21.052;2022-08-21T09:51:31;6.53;;;3.50;;
65996;SDS011;52765;52.258;21.052;2022-08-21T09:59:25;4.28;;;2.97;;
65996;SDS011;52765;52.258;21.052;2022-08-21T10:01:57;3.83;;;3.38;;
65996;SDS011;52765;52.258;21.052;2022-08-21T10:04:33;8.32;;;3.40;;
65996;SDS011;52765;52.258;21.052;2022-08-21T10:07:08;4.65;;;3.28;;
65996;SDS011;52765;52.258;21.052;2022-08-21T10:09:39;5.18;;;3.05;;
65996;SDS011;52765;52.258;21.052;2022-08-21T10:12:08;4.80;;;3.15;;
65996;SDS011;52765;52.258;21.052;2022-08-21T10:20:20;4.25;;;3.30;;
65996;SDS011;52765;52.258;21.052;2022-08-21T10:25:42;5.07;;;2.92;;
65996;SDS011;52765;52.258;21.052;2022-08-21T10:28:37;6.10;;;2.85;;
65996;SDS011;52765;52.258;21.052;2022-08-21T10:33:42;5.70;;;3.30;;
65996;SDS011;52765;52.258;21.052;2022-08-21T10:36:19;6.93;;;2.70;;
65996;SDS011;52765;52.258;21.052;2022-08-21T10:39:07;3.75;;;2.95;;
65996;SDS011;52765;52.258;21.052;2022-08-21T10:42:10;5.00;;;3.15;;
65996;SDS011;52765;52.258;21.052;2022-08-21T10:45:02;3.72;;;2.63;;
65996;SDS011;52765;52.258;21.052;2022-08-21T10:47:44;4.20;;;3.10;;
65996;SDS011;52765;52.258;21.052;2022-08-21T10:55:41;4.50;;;2.72;;
65996;SDS011;52765;52.258;21.052;2022-08-21T11:00:51;3.25;;;2.70;;
65996;SDS011;52765;52.258;21.052;2022-08-21T11:05:51;3.03;;;2.65;;
65996;SDS011;52765;52.258;21.052;2022-08-21T11:08:31;4.37;;;2.87;;
65996;SDS011;52765;52.258;21.052;2022-08-21T11:16:26;4.78;;;3.20;;
65996;SDS011;52765;52.258;21.052;2022-08-21T11:18:58;4.80;;;3.45;;
65996;SDS011;52765;52.258;21.052;2022-08-21T11:21:37;4.03;;;3.65;;
65996;SDS011;52765;52.258;21.052;2022-08-21T11:29:59;5.47;;;2.67;;
65996;SDS011;52765;52.258;21.052;2022-08-21T11:38:16;3.97;;;2.63;;
65996;SDS011;52765;52.258;21.052;2022-08-21T11:41:12;3.38;;;2.53;;
65996;SDS011;52765;52.258;21.052;2022-08-21T11:43:43;4.50;;;2.92;;
65996;SDS011;52765;52.258;21.052;2022-08-21T11:55:12;3.75;;;2.40;;
65996;SDS011;52765;52.258;21.052;2022-08-21T11:57:48;3.63;;;2.88;;
65996;SDS011;52765;52.258;21.052;2022-08-21T12:03:05;3.40;;;2.97;;
65996;SDS011;52765;52.258;21.052;2022-08-21T12:05:39;3.55;;;2.70;;
65996;SDS011;52765;52.258;21.052;2022-08-21T12:08:26;5.13;;;2.90;;
65996;SDS011;52765;52.258;21.052;2022-08-21T12:13:51;3.25;;;2.53;;
65996;SDS011;52765;52.258;21.052;2022-08-21T12:16:48;3.90;;;2.90;;
65996;SDS011;52765;52.258;21.052;2022-08-21T12:21:53;3.03;;;2.40;;
65996;SDS011;52765;52.258;21.052;2022-08-21T12:26:59;4.10;;;2.70;;
65996;SDS011;52765;52.258;21.052;2022-08-21T12:29:37;3.17;;;2.60;;
65996;SDS011;52765;52.258;21.052;2022-08-21T12:34:52;4.38;;;2.35;;
65996;SDS011;52765;52.258;21.052;2022-08-21T12:39:57;2.72;;;2.40;;
65996;SDS011;52765;52.258;21.052;2022-08-21T12:42:31;4.20;;;2.63;;
65996;SDS011;52765;52.258;21.052;2022-08-21T12:45:07;3.33;;;2.60;;
65996;SDS011;52765;52.258;21.052;2022-08-21T12:47:58;5.97;;;2.72;;
65996;SDS011;52765;52.258;21.052;2022-08-21T12:50:37;3.78;;;2.70;;
65996;SDS011;52765;52.258;21.052;2022-08-21T12:53:15;4.93;;;2.58;;
65996;SDS011;52765;52.258;21.052;2022-08-21T12:55:49;3.13;;;2.70;;
65996;SDS011;52765;52.258;21.052;2022-08-21T12:58:19;5.07;;;2.70;;
65996;SDS011;52765;52.258;21.052;2022-08-21T13:00:48;4.50;;;2.85;;
65996;SDS011;52765;52.258;21.052;2022-08-21T13:03:26;3.53;;;3.10;;
65996;SDS011;52765;52.258;21.052;2022-08-21T13:05:53;4.93;;;3.13;;
65996;SDS011;52765;52.258;21.052;2022-08-21T13:08:20;3.08;;;2.78;;
65996;SDS011;52765;52.258;21.052;2022-08-21T13:10:49;4.78;;;2.80;;
65996;SDS011;52765;52.258;21.052;2022-08-21T13:13:24;3.72;;;3.03;;
65996;SDS011;52765;52.258;21.052;2022-08-21T13:15:55;3.35;;;2.85;;
65996;SDS011;52765;52.258;21.052;2022-08-21T13:18:27;3.97;;;2.90;;
65996;SDS011;52765;52.258;21.052;2022-08-21T13:21:13;3.67;;;2.75;;
65996;SDS011;52765;52.258;21.052;2022-08-21T13:23:40;3.58;;;2.92;;
65996;SDS011;52765;52.258;21.052;2022-08-21T13:26:17;4.70;;;2.85;;
65996;SDS011;52765;52.258;21.052;2022-08-21T13:28:45;3.30;;;2.55;;
65996;SDS011;52765;52.258;21.052;2022-08-21T13:31:25;5.05;;;2.50;;
65996;SDS011;52765;52.258;21.052;2022-08-21T13:33:58;3.53;;;2.70;;
65996;SDS011;52765;52.258;21.052;2022-08-21T13:36:34;2.92;;;2.67;;
65996;SDS011;52765;52.258;21.052;2022-08-21T13:39:05;2.95;;;2.63;;
65996;SDS011;52765;52.258;21.052;2022-08-21T13:41:36;3.45;;;2.67;;
65996;SDS011;52765;52.258;21.052;2022-08-21T13:44:05;3.75;;;2.88;;
65996;SDS011;52765;52.258;21.052;2022-08-21T13:46:43;6.13;;;3.03;;
65996;SDS011;52765;52.258;21.052;2022-08-21T13:49:09;3.08;;;2.65;;
65996;SDS011;52765;52.258;21.052;2022-08-21T13:51:38;4.20;;;2.80;;
65996;SDS011;52765;52.258;21.052;2022-08-21T13:56:48;4.22;;;2.83;;
65996;SDS011;52765;52.258;21.052;2022-08-21T13:59:28;4.32;;;2.95;;
65996;SDS011;52765;52.258;21.052;2022-08-21T14:01:55;3.05;;;2.75;;
65996;SDS011;52765;52.258;21.052;2022-08-21T14:04:35;3.50;;;2.72;;
65996;SDS011;52765;52.258;21.052;2022-08-21T14:07:03;2.58;;;2.38;;
65996;SDS011;52765;52.258;21.052;2022-08-21T14:09:42;5.22;;;2.83;;
65996;SDS011;52765;52.258;21.052;2022-08-21T14:12:19;4.85;;;2.88;;
65996;SDS011;52765;52.258;21.052;2022-08-21T14:14:54;4.57;;;2.67;;
65996;SDS011;52765;52.258;21.052;2022-08-21T14:17:28;2.80;;;2.50;;
65996;SDS011;52765;52.258;21.052;2022-08-21T14:20:00;2.95;;;2.60;;
65996;SDS011;52765;52.258;21.052;2022-08-21T14:25:06;5.10;;;2.58;;
65996;SDS011;52765;52.258;21.052;2022-08-21T14:32:49;3.45;;;2.42;;
65996;SDS011;52765;52.258;21.052;2022-08-21T14:35:21;3.15;;;2.63;;
65996;SDS011;52765;52.258;21.052;2022-08-21T14:37:47;3.25;;;2.80;;
65996;SDS011;52765;52.258;21.052;2022-08-21T14:40:15;7.88;;;3.00;;
65996;SDS011;52765;52.258;21.052;2022-08-21T14:42:42;5.50;;;2.47;;
65996;SDS011;52765;52.258;21.052;2022-08-21T14:45:28;3.42;;;2.58;;
65996;SDS011;52765;52.258;21.052;2022-08-21T14:47:56;2.78;;;2.55;;
65996;SDS011;52765;52.258;21.052;2022-08-21T14:50:22;4.10;;;2.72;;
65996;SDS011;52765;52.258;21.052;2022-08-21T14:52:48;2.55;;;2.30;;
65996;SDS011;52765;52.258;21.052;2022-08-21T14:55:14;3.13;;;2.33;;
65996;SDS011;52765;52.258;21.052;2022-08-21T14:57:41;2.55;;;2.20;;
65996;SDS011;52765;52.258;21.052;2022-08-21T15:00:11;3.33;;;2.15;;
65996;SDS011;52765;52.258;21.052;2022-08-21T15:02:38;3.05;;;2.47;;
65996;SDS011;52765;52.258;21.052;2022-08-21T15:05:04;3.38;;;2.42;;
65996;SDS011;52765;52.258;21.052;2022-08-21T15:07:31;3.42;;;2.30;;
65996;SDS011;52765;52.258;21.052;2022-08-21T15:09:57;2.65;;;2.30;;
65996;SDS011;52765;52.258;21.052;2022-08-21T15:12:23;3.45;;;2.10;;
65996;SDS011;52765;52.258;21.052;2022-08-21T15:14:50;4.40;;;3.17;;
65996;SDS011;52765;52.258;21.052;2022-08-21T15:17:16;3.72;;;2.55;;
65996;SDS011;52765;52.258;21.052;2022-08-21T15:19:42;2.90;;;2.45;;
65996;SDS011;52765;52.258;21.052;2022-08-21T15:22:08;2.25;;;2.05;;
65996;SDS011;52765;52.258;21.052;2022-08-21T15:24:34;3.75;;;2.47;;
65996;SDS011;52765;52.258;21.052;2022-08-21T15:27:00;3.08;;;2.60;;
65996;SDS011;52765;52.258;21.052;2022-08-21T15:29:29;3.85;;;2.30;;
65996;SDS011;52765;52.258;21.052;2022-08-21T15:31:57;6.05;;;2.40;;
65996;SDS011;52765;52.258;21.052;2022-08-21T15:34:26;2.55;;;2.22;;
65996;SDS011;52765;52.258;21.052;2022-08-21T15:36:54;3.45;;;2.85;;
65996;SDS011;52765;52.258;21.052;2022-08-21T15:39:21;3.30;;;2.47;;
65996;SDS011;52765;52.258;21.052;2022-08-21T15:41:47;2.30;;;2.10;;
65996;SDS011;52765;52.258;21.052;2022-08-21T15:44:14;2.45;;;2.13;;
65996;SDS011;52765;52.258;21.052;2022-08-21T15:46:43;4.20;;;2.05;;
65996;SDS011;52765;52.258;21.052;2022-08-21T15:49:10;3.65;;;2.30;;
65996;SDS011;52765;52.258;21.052;2022-08-21T15:51:35;3.75;;;2.42;;
65996;SDS011;52765;52.258;21.052;2022-08-21T15:54:01;5.72;;;2.78;;
65996;SDS011;52765;52.258;21.052;2022-08-21T15:56:34;6.38;;;3.58;;
65996;SDS011;52765;52.258;21.052;2022-08-21T15:59:07;5.13;;;2.80;;
65996;SDS011;52765;52.258;21.052;2022-08-21T16:01:36;3.45;;;2.40;;
65996;SDS011;52765;52.258;21.052;2022-08-21T16:04:03;3.92;;;3.10;;
65996;SDS011;52765;52.258;21.052;2022-08-21T16:06:29;3.78;;;2.80;;
65996;SDS011;52765;52.258;21.052;2022-08-21T16:08:55;3.80;;;3.40;;
65996;SDS011;52765;52.258;21.052;2022-08-21T16:11:21;4.15;;;3.45;;
65996;SDS011;52765;52.258;21.052;2022-08-21T16:13:47;4.88;;;3.17;;
65996;SDS011;52765;52.258;21.052;2022-08-21T16:16:16;4.43;;;3.25;;
65996;SDS011;52765;52.258;21.052;2022-08-21T16:18:44;4.68;;;3.13;;
65996;SDS011;52765;52.258;21.052;2022-08-21T16:21:11;3.95;;;3.15;;
65996;SDS011;52765;52.258;21.052;2022-08-21T16:23:36;4.57;;;3.13;;
65996;SDS011;52765;52.258;21.052;2022-08-21T16:26:04;5.57;;;3.50;;
65996;SDS011;52765;52.258;21.052;2022-08-21T16:28:32;3.45;;;3.05;;